Time;durP1;ratioP1;P1;durP2;ratioP2;P2;SDS_P1;SDS_P2;PMS_P1;PMS_P2;Temp;Humidity;BMP_temperature;BMP_pressure;BME280_temperature;BME280_humidity;BME280_pressure;Samples;Min_cycle;Max_cycle;Signal;HPM_P1;HPM_P2
2022/08/14 00:01:47;;;;;;;6.03;5.50;;;;;;;23.14;51.82;98572.22;5116216;27;42891;-76
2022/08/14 00:04:15;;;;;;;5.50;5.10;;;;;;;23.16;51.87;98581.81;5098936;27;41854;-75
2022/08/14 00:06:44;;;;;;;6.00;5.50;;;;;;;23.19;52.13;98572.50;5099102;27;39138;-75
2022/08/14 00:09:12;;;;;;;6.17;5.67;;;;;;;23.21;52.60;98565.91;5115693;27;43240;-75
2022/08/14 00:11:39;;;;;;;6.90;6.30;;;;;;;23.18;52.09;98551.91;5115792;27;41791;-75
2022/08/14 00:14:08;;;;;;;6.47;5.87;;;;;;;23.25;52.77;98564.50;5115477;27;42522;-75
2022/08/14 00:16:36;;;;;;;6.27;5.73;;;;;;;23.25;52.39;98564.50;5134315;27;40704;-75
2022/08/14 00:19:04;;;;;;;6.17;5.57;;;;;;;23.25;52.43;98563.66;5097982;27;43318;-75
2022/08/14 00:21:32;;;;;;;6.17;5.67;;;;;;;23.23;52.25;98561.16;5134327;27;43520;-75
2022/08/14 00:24:03;;;;;;;5.70;5.30;;;;;;;23.22;52.28;98564.06;5098482;27;41267;-75
2022/08/14 00:26:30;;;;;;;6.13;5.27;;;;;;;23.15;52.69;98550.41;5099166;27;40613;-75
2022/08/14 00:28:58;;;;;;;6.80;6.20;;;;;;;23.15;52.97;98546.88;5115553;27;42413;-75
2022/08/14 00:31:26;;;;;;;6.33;5.83;;;;;;;23.03;53.18;98541.06;5115947;27;41722;-75
2022/08/14 00:33:54;;;;;;;6.23;5.63;;;;;;;23.04;53.11;98540.06;5115962;27;43284;-75
2022/08/14 00:36:23;;;;;;;5.53;5.07;;;;;;;22.99;53.01;98541.66;5115821;27;40744;-75
2022/08/14 00:38:51;;;;;;;5.97;5.47;;;;;;;22.95;52.89;98540.31;5133817;27;41869;-75
2022/08/14 00:41:21;;;;;;;7.00;6.40;;;;;;;22.89;52.74;98541.88;5115486;27;42936;-75
2022/08/14 00:43:48;;;;;;;5.93;5.43;;;;;;;22.78;53.01;98523.41;5115049;27;42326;-74
2022/08/14 00:46:16;;;;;;;5.70;5.20;;;;;;;22.79;53.00;98541.28;5098582;27;41278;-75
2022/08/14 00:48:44;;;;;;;6.07;5.57;;;;;;;22.71;53.37;98523.28;5098363;27;40890;-75
2022/08/14 00:51:12;;;;;;;6.37;5.87;;;;;;;22.69;53.75;98529.88;5134058;27;43487;-76
2022/08/14 00:53:39;;;;;;;5.97;5.47;;;;;;;22.62;53.65;98526.22;5133684;27;42445;-75
2022/08/14 00:56:08;;;;;;;6.30;5.80;;;;;;;22.55;53.69;98535.03;5133641;27;40181;-75
2022/08/14 00:58:38;;;;;;;5.80;5.30;;;;;;;22.50;53.80;98528.50;5133558;27;41830;-75
2022/08/14 01:01:10;;;;;;;6.37;5.80;;;;;;;22.44;53.65;98521.94;5115213;27;42711;-75
2022/08/14 01:03:40;;;;;;;5.87;5.37;;;;;;;22.40;53.72;98517.91;5097736;27;43640;-76
2022/08/14 01:06:09;;;;;;;7.10;6.40;;;;;;;22.35;53.89;98522.19;5097857;27;39973;-76
2022/08/14 01:08:38;;;;;;;7.00;5.93;;;;;;;22.30;54.11;98520.00;5114528;27;42261;-75
2022/08/14 01:11:06;;;;;;;6.20;5.60;;;;;;;22.25;54.02;98517.03;5097906;27;41833;-74
2022/08/14 01:13:38;;;;;;;6.70;6.10;;;;;;;22.19;54.67;98512.31;5097848;27;41351;-74
2022/08/14 01:16:08;;;;;;;6.80;6.10;;;;;;;22.14;55.10;98510.16;5115613;27;39966;-74
2022/08/14 01:21:24;;;;;;;6.73;6.13;;;;;;;22.06;55.57;98514.75;5111862;27;42700;-75
2022/08/14 01:23:53;;;;;;;7.33;6.43;;;;;;;22.00;56.20;98513.63;5114795;27;43259;-74
2022/08/14 01:26:23;;;;;;;7.70;6.63;;;;;;;21.86;55.73;98490.06;5115082;27;39988;-74
2022/08/14 01:28:54;;;;;;;6.57;6.07;;;;;;;21.95;56.23;98498.94;5097154;27;42039;-74
2022/08/14 01:31:23;;;;;;;9.13;6.77;;;;;;;21.83;56.10;98487.72;5097815;27;43648;-74
2022/08/14 01:33:55;;;;;;;7.50;6.80;;;;;;;21.88;56.18;98498.84;5133094;27;42303;-74
2022/08/14 01:36:25;;;;;;;6.30;5.70;;;;;;;21.84;56.46;98495.63;5111730;27;41810;-75
2022/08/14 01:38:56;;;;;;;7.43;6.70;;;;;;;21.79;56.35;98497.16;5097507;27;41069;-74
2022/08/14 01:41:27;;;;;;;6.80;6.27;;;;;;;21.75;55.89;98496.69;5115033;27;42143;-74
2022/08/14 01:43:59;;;;;;;6.80;6.20;;;;;;;21.71;56.93;98487.28;5114453;27;41042;-75
2022/08/14 01:46:30;;;;;;;7.07;6.47;;;;;;;21.65;56.75;98487.13;5114691;27;40085;-75
2022/08/14 01:48:58;;;;;;;7.80;7.10;;;;;;;21.61;57.14;98480.41;5112293;27;42073;-75
2022/08/14 01:51:30;;;;;;;7.00;6.40;;;;;;;21.42;57.13;98460.09;5114166;27;42211;-75
2022/08/14 01:53:59;;;;;;;7.37;6.63;;;;;;;21.50;58.02;98473.56;5097652;27;42185;-74
2022/08/14 01:56:36;;;;;;;7.07;6.47;;;;;;;21.45;57.68;98470.53;5133311;27;40098;-75
2022/08/14 01:59:06;;;;;;;6.40;5.90;;;;;;;21.43;57.56;98473.41;5114203;27;43124;-74
2022/08/14 02:01:34;;;;;;;7.13;6.57;;;;;;;21.40;57.37;98472.91;5133140;27;42773;-74
2022/08/14 02:04:03;;;;;;;7.23;6.63;;;;;;;21.36;56.92;98471.59;5097198;27;42356;-75
2022/08/14 02:06:33;;;;;;;6.83;6.23;;;;;;;21.32;57.46;98470.25;5114340;27;40022;-74
2022/08/14 02:09:02;;;;;;;7.23;6.53;;;;;;;21.28;57.98;98468.91;5097202;27;41705;-74
2022/08/14 02:11:30;;;;;;;7.43;6.83;;;;;;;21.24;57.92;98460.34;5097231;27;43253;-74
2022/08/14 02:14:00;;;;;;;8.27;7.57;;;;;;;21.17;58.40;98454.75;5114058;27;42427;-74
2022/08/14 02:16:32;;;;;;;7.90;7.20;;;;;;;21.16;58.55;98453.06;5097314;27;39490;-74
2022/08/14 02:19:04;;;;;;;7.70;7.10;;;;;;;21.13;58.76;98442.66;5131673;27;42764;-74
2022/08/14 02:21:35;;;;;;;8.30;7.50;;;;;;;21.08;59.32;98442.34;5113872;27;43115;-74
2022/08/14 02:24:05;;;;;;;10.40;9.40;;;;;;;20.99;59.37;98432.59;5096597;27;41418;-75
2022/08/14 02:26:35;;;;;;;9.03;8.23;;;;;;;21.05;59.72;98442.66;5097137;27;40149;-74
2022/08/14 02:29:10;;;;;;;8.40;7.70;;;;;;;21.03;60.69;98444.69;5113988;27;41700;-74
2022/08/14 02:31:40;;;;;;;8.13;7.43;;;;;;;21.02;60.14;98440.31;5114334;27;41764;-74
2022/08/14 02:34:10;;;;;;;7.77;7.07;;;;;;;20.99;59.76;98443.38;5096870;27;41120;-74
2022/08/14 02:36:40;;;;;;;8.77;7.97;;;;;;;20.98;59.41;98447.06;5114380;27;40561;-75
2022/08/14 02:39:11;;;;;;;8.03;7.33;;;;;;;20.97;59.59;98450.78;5096688;27;43098;-74
2022/08/14 02:41:39;;;;;;;7.67;6.93;;;;;;;20.95;59.73;98443.88;5116550;27;43788;-75
2022/08/14 02:44:09;;;;;;;7.93;7.23;;;;;;;20.92;59.86;98447.75;5117465;27;42332;-74
2022/08/14 02:46:38;;;;;;;8.37;7.60;;;;;;;20.82;60.65;98433.63;5117560;27;41398;-74
2022/08/14 02:49:06;;;;;;;7.50;6.90;;;;;;;20.84;60.64;98438.84;5117346;27;42558;-74
2022/08/14 02:51:35;;;;;;;8.37;7.67;;;;;;;20.82;61.02;98436.34;5135788;27;42869;-74
2022/08/14 02:54:06;;;;;;;8.13;7.37;;;;;;;20.80;61.01;98422.19;5117110;27;42314;-74
2022/08/14 02:56:37;;;;;;;8.43;7.73;;;;;;;20.78;61.30;98424.22;5100299;27;39051;-74
2022/08/14 02:59:06;;;;;;;7.97;7.17;;;;;;;20.78;61.81;98422.38;5115696;27;41564;-74
2022/08/14 03:01:35;;;;;;;8.77;7.97;;;;;;;20.75;61.60;98411.97;5117441;27;42780;-74
2022/08/14 03:04:09;;;;;;;8.57;7.87;;;;;;;20.73;61.18;98415.84;5135460;27;43288;-74
2022/08/14 03:06:39;;;;;;;8.53;7.73;;;;;;;20.72;61.14;98414.16;5117603;27;38817;-74
2022/08/14 03:09:08;;;;;;;9.90;9.07;;;;;;;20.70;61.92;98405.41;5116968;27;42649;-74
2022/08/14 03:11:37;;;;;;;8.17;7.40;;;;;;;20.67;61.97;98400.34;5100172;27;42131;-74
2022/08/14 03:14:05;;;;;;;8.23;7.53;;;;;;;20.65;61.73;98413.13;5135272;27;43219;-74
2022/08/14 03:16:34;;;;;;;8.10;7.40;;;;;;;20.62;61.07;98413.50;5117320;27;41881;-74
2022/08/14 03:19:05;;;;;;;7.03;6.53;;;;;;;20.58;61.31;98406.78;5116579;27;42493;-75
2022/08/14 03:21:35;;;;;;;8.07;7.33;;;;;;;20.56;61.23;98404.25;5114111;27;42808;-74
2022/08/14 03:24:10;;;;;;;7.80;7.00;;;;;;;20.54;61.20;98400.03;5116796;27;42353;-74
2022/08/14 03:26:42;;;;;;;7.83;7.13;;;;;;;20.51;60.61;98395.03;5114183;27;40128;-74
2022/08/14 03:29:12;;;;;;;7.50;6.80;;;;;;;20.47;60.53;98383.75;5099859;27;42345;-74
2022/08/14 03:31:40;;;;;;;7.07;6.47;;;;;;;20.43;60.08;98388.63;5116781;27;42906;-75
2022/08/14 03:34:10;;;;;;;6.90;6.07;;;;;;;20.40;60.03;98385.41;5099504;27;42303;-74
2022/08/14 03:36:41;;;;;;;7.70;6.87;;;;;;;20.35;60.15;98374.31;5116852;27;39975;-74
2022/08/14 03:39:11;;;;;;;7.93;7.23;;;;;;;20.32;60.19;98385.41;5116463;27;42160;-75
2022/08/14 03:41:41;;;;;;;7.03;6.43;;;;;;;20.27;60.26;98372.47;5099640;27;42927;-74
2022/08/14 03:44:09;;;;;;;8.23;7.43;;;;;;;20.24;61.25;98369.28;5134940;27;42230;-74
2022/08/14 03:46:41;;;;;;;9.67;8.77;;;;;;;20.19;61.19;98364.41;5099660;27;38936;-74
2022/08/14 03:49:09;;;;;;;7.97;7.27;;;;;;;20.16;61.44;98359.34;5133301;27;42757;-75
2022/08/14 03:51:39;;;;;;;7.83;7.13;;;;;;;20.02;62.20;98336.69;5099421;27;44228;-74
2022/08/14 03:54:08;;;;;;;9.70;8.77;;;;;;;20.09;62.70;98342.22;5115898;27;42252;-75
2022/08/14 03:56:39;;;;;;;7.93;7.10;;;;;;;20.05;62.16;98348.94;5135129;27;40027;-74
2022/08/14 03:59:10;;;;;;;7.90;7.20;;;;;;;20.04;62.13;98355.31;5114555;27;42666;-74
2022/08/14 04:01:39;;;;;;;8.10;7.30;;;;;;;20.01;62.23;98361.06;5099673;27;42651;-74
2022/08/14 04:04:08;;;;;;;8.63;7.93;;;;;;;19.97;62.22;98370.44;5116734;27;43489;-74
2022/08/14 04:06:38;;;;;;;7.67;7.07;;;;;;;19.95;62.26;98377.84;5116181;27;40104;-74
2022/08/14 04:09:07;;;;;;;8.20;7.37;;;;;;;19.93;61.77;98385.22;5116389;27;41945;-74
2022/08/14 04:11:36;;;;;;;7.80;7.10;;;;;;;19.90;61.07;98380.19;5134546;27;43804;-74
2022/08/14 04:14:05;;;;;;;7.33;6.73;;;;;;;19.88;61.22;98380.38;5116031;27;42373;-74
2022/08/14 04:16:35;;;;;;;7.97;7.27;;;;;;;19.87;61.34;98369.78;5116111;27;38907;-75
2022/08/14 04:19:03;;;;;;;8.70;7.90;;;;;;;19.87;62.98;98365.25;5115335;27;41889;-74
2022/08/14 04:21:31;;;;;;;9.17;8.37;;;;;;;19.87;63.07;98359.03;5098938;27;41795;-74
2022/08/14 04:24:01;;;;;;;8.43;7.63;;;;;;;19.78;63.21;98350.09;5115978;27;42065;-75
2022/08/14 04:26:31;;;;;;;9.10;8.30;;;;;;;19.81;64.64;98348.94;5099094;27;39622;-74
2022/08/14 04:28:59;;;;;;;10.27;8.93;;;;;;;19.89;65.10;98357.84;5115908;27;41575;-74
2022/08/14 04:31:27;;;;;;;9.20;8.30;;;;;;;19.91;65.04;98361.19;5115696;27;43187;-74
2022/08/14 04:33:56;;;;;;;9.37;8.57;;;;;;;19.92;65.56;98362.03;5115762;27;41260;-74
2022/08/14 04:36:24;;;;;;;9.47;8.57;;;;;;;19.92;65.53;98367.41;5098621;27;40711;-74
2022/08/14 04:44:22;;;;;;;8.83;8.03;;;;;;;19.96;65.06;98371.44;5115458;27;41399;-74
2022/08/14 04:49:32;;;;;;;10.47;8.97;;;;;;;20.08;65.33;98367.44;5132015;27;42685;-74
2022/08/14 04:52:03;;;;;;;9.37;8.47;;;;;;;20.15;65.10;98365.75;5115135;27;43592;-74
2022/08/14 04:54:31;;;;;;;9.40;8.53;;;;;;;20.16;64.62;98367.41;5133760;27;42922;-74
2022/08/14 04:56:59;;;;;;;10.40;8.90;;;;;;;20.28;64.37;98367.91;5115577;27;40968;-74
2022/08/14 04:59:27;;;;;;;9.27;8.30;;;;;;;20.33;64.94;98371.78;5115277;27;41649;-74
2022/08/14 05:01:56;;;;;;;9.10;8.30;;;;;;;20.37;64.24;98378.56;5133877;27;42678;-74
2022/08/14 05:04:24;;;;;;;9.40;8.57;;;;;;;20.50;64.06;98387.97;5097194;27;42257;-74
2022/08/14 05:06:54;;;;;;;8.27;7.57;;;;;;;20.60;63.47;98388.59;5115328;27;40022;-74
2022/08/14 05:09:23;;;;;;;9.07;8.27;;;;;;;20.67;64.20;98384.22;5114931;27;41896;-74
2022/08/14 05:11:51;;;;;;;9.83;8.83;;;;;;;20.67;63.90;98357.31;5115200;27;42788;-74
2022/08/14 05:14:21;;;;;;;9.87;9.00;;;;;;;20.83;63.45;98368.03;5115253;27;42247;-74
2022/08/14 05:16:49;;;;;;;8.90;8.10;;;;;;;20.91;63.56;98369.84;5115128;27;40014;-75
2022/08/14 05:19:17;;;;;;;11.67;9.80;;;;;;;20.97;64.30;98371.88;5114276;27;41791;-75
2022/08/14 05:21:45;;;;;;;10.17;9.17;;;;;;;21.04;63.87;98373.69;5133448;27;43801;-74
2022/08/14 05:24:14;;;;;;;9.77;8.90;;;;;;;21.13;63.85;98374.50;5097631;27;41147;-74
2022/08/14 05:26:45;;;;;;;9.17;8.27;;;;;;;21.23;63.61;98380.56;5133552;27;39976;-74
2022/08/14 05:29:13;;;;;;;9.87;8.97;;;;;;;21.28;62.88;98371.94;5097738;27;41542;-74
2022/08/14 05:31:41;;;;;;;9.10;8.30;;;;;;;21.44;62.32;98388.03;5097805;27;41663;-74
2022/08/14 05:34:10;;;;;;;9.47;8.57;;;;;;;21.51;62.60;98383.63;5097728;27;41138;-74
2022/08/14 05:36:38;;;;;;;9.43;8.63;;;;;;;21.63;61.81;98384.91;5097703;27;41273;-75
2022/08/14 05:39:06;;;;;;;9.97;9.13;;;;;;;21.73;61.89;98390.91;5114524;27;40632;-74
2022/08/14 05:41:35;;;;;;;11.70;10.13;;;;;;;21.84;61.58;98386.97;5114793;27;42508;-75
2022/08/14 05:44:03;;;;;;;9.77;8.87;;;;;;;21.94;61.24;98384.03;5132718;27;42352;-74
2022/08/14 05:46:31;;;;;;;9.10;8.23;;;;;;;22.04;60.83;98380.09;5133245;27;40808;-74
2022/08/14 05:48:59;;;;;;;10.23;9.23;;;;;;;22.16;60.42;98383.22;5097631;27;40945;-74
2022/08/14 05:51:28;;;;;;;9.50;8.60;;;;;;;22.27;60.54;98374.69;5132963;27;43596;-74
2022/08/14 05:53:56;;;;;;;9.13;8.23;;;;;;;22.46;60.09;98384.16;5114394;27;41369;-74
2022/08/14 05:56:25;;;;;;;10.20;9.30;;;;;;;22.66;59.98;98384.44;5133313;27;40929;-74
2022/08/14 05:58:54;;;;;;;10.27;9.37;;;;;;;22.81;59.42;98388.03;5114323;27;41734;-74
2022/08/14 06:01:22;;;;;;;9.03;8.30;;;;;;;22.92;59.40;98379.50;5097585;27;42887;-74
2022/08/14 06:03:50;;;;;;;10.10;9.10;;;;;;;23.02;58.86;98385.44;5114492;27;42205;-74
2022/08/14 06:06:18;;;;;;;9.77;8.93;;;;;;;23.08;58.88;98376.59;5097338;27;39257;-74
2022/08/14 06:08:46;;;;;;;9.90;8.90;;;;;;;23.17;58.65;98386.28;5113836;27;43811;-74
2022/08/14 06:11:14;;;;;;;9.60;8.80;;;;;;;23.26;58.30;98385.16;5132847;27;43790;-74
2022/08/14 06:13:43;;;;;;;9.30;8.40;;;;;;;23.38;58.17;98384.66;5114130;27;41299;-74
2022/08/14 06:16:15;;;;;;;9.13;8.23;;;;;;;23.52;57.91;98386.53;5096922;27;38804;-74
2022/08/14 06:18:43;;;;;;;8.87;8.07;;;;;;;23.67;57.52;98387.34;5131054;27;41694;-74
2022/08/14 06:21:11;;;;;;;7.97;7.27;;;;;;;23.97;56.99;98393.53;5114048;27;44275;-74
2022/08/14 06:23:38;;;;;;;8.50;7.70;;;;;;;24.22;56.12;98402.09;5132725;27;42331;-74
2022/08/14 06:26:06;;;;;;;10.60;9.70;;;;;;;24.34;56.04;98392.47;5114374;27;40025;-74
2022/08/14 06:28:35;;;;;;;8.83;8.03;;;;;;;24.44;55.96;98398.38;5114207;27;42674;-74
2022/08/14 06:31:03;;;;;;;8.43;7.73;;;;;;;24.59;55.62;98395.59;5114134;27;41501;-74
2022/08/14 06:33:32;;;;;;;8.27;7.63;;;;;;;24.94;54.43;98399.19;5132379;27;42257;-74
2022/08/14 06:36:00;;;;;;;9.20;8.50;;;;;;;25.40;53.37;98413.84;5113947;27;41480;-74
2022/08/14 06:38:28;;;;;;;8.87;8.17;;;;;;;25.73;52.55;98414.03;5113736;27;40719;-75
2022/08/14 06:40:56;;;;;;;7.87;7.27;;;;;;;26.12;51.67;98399.72;5132418;27;43797;-75
2022/08/14 06:43:23;;;;;;;8.07;7.37;;;;;;;26.82;50.38;98420.09;5113582;27;42526;-74
2022/08/14 06:45:51;;;;;;;9.63;8.73;;;;;;;27.33;48.75;98419.38;5097248;27;38349;-74
2022/08/14 06:48:22;;;;;;;7.97;7.27;;;;;;;27.58;48.15;98432.31;5113856;27;42712;-75
2022/08/14 06:50:53;;;;;;;8.03;7.23;;;;;;;27.54;47.76;98424.56;5096981;27;43082;-74
2022/08/14 06:53:21;;;;;;;8.37;7.67;;;;;;;27.36;48.23;98424.41;5110890;27;43016;-75
2022/08/14 06:55:50;;;;;;;7.40;6.80;;;;;;;27.21;48.82;98421.06;5113987;27;40796;-76
2022/08/14 06:58:20;;;;;;;7.47;6.77;;;;;;;27.07;48.54;98397.72;5096175;27;41960;-75
2022/08/14 07:06:17;;;;;;;7.47;6.87;;;;;;;27.46;47.75;98403.03;5110743;27;40754;-75
2022/08/14 07:08:45;;;;;;;7.43;6.83;;;;;;;27.67;47.78;98414.72;5132037;27;42663;-75
2022/08/14 07:11:13;;;;;;;8.10;7.30;;;;;;;27.76;47.26;98413.41;5113643;27;42702;-76
2022/08/14 07:13:41;;;;;;;6.73;6.23;;;;;;;27.89;47.34;98413.34;5131832;27;42915;-75
2022/08/14 07:16:11;;;;;;;7.23;6.63;;;;;;;27.95;46.94;98407.00;5113736;27;40966;-76
2022/08/14 07:18:40;;;;;;;7.33;6.73;;;;;;;27.88;46.66;98407.06;5113473;27;41788;-76
2022/08/14 07:21:09;;;;;;;6.70;6.20;;;;;;;27.88;46.75;98403.50;5131359;27;44046;-76
2022/08/14 07:23:38;;;;;;;7.33;6.73;;;;;;;27.96;46.73;98402.41;5095752;27;42539;-75
2022/08/14 07:26:07;;;;;;;7.17;6.47;;;;;;;28.02;46.12;98377.03;5113125;27;40727;-75
2022/08/14 07:28:36;;;;;;;6.77;6.27;;;;;;;28.43;45.33;98388.31;5115188;27;41916;-76
2022/08/14 07:31:06;;;;;;;7.00;6.47;;;;;;;28.73;45.00;98399.38;5116844;27;43169;-75
2022/08/14 07:33:37;;;;;;;6.50;6.00;;;;;;;28.84;44.68;98395.09;5099729;27;42212;-75
2022/08/14 07:36:08;;;;;;;7.00;6.50;;;;;;;28.95;44.79;98394.38;5113802;27;39947;-77
2022/08/14 07:38:39;;;;;;;7.23;6.60;;;;;;;29.04;44.19;98394.94;5116837;27;40630;-75
2022/08/14 07:41:09;;;;;;;6.33;5.83;;;;;;;29.17;44.03;98382.00;5116724;27;42827;-75
2022/08/14 07:43:38;;;;;;;7.23;6.63;;;;;;;29.25;43.07;98378.13;5134883;27;42025;-76
2022/08/14 07:46:07;;;;;;;7.73;6.30;;;;;;;29.27;43.22;98378.75;5135162;27;39918;-76
2022/08/14 07:48:39;;;;;;;7.10;6.40;;;;;;;29.40;42.99;98367.72;5116375;27;41782;-76
2022/08/14 07:51:07;;;;;;;6.83;6.23;;;;;;;29.61;42.40;98361.75;5099233;27;43125;-76
2022/08/14 07:53:34;;;;;;;7.00;6.37;;;;;;;30.02;41.31;98375.75;5116525;27;42308;-75
2022/08/14 07:56:04;;;;;;;6.50;6.00;;;;;;;30.48;40.82;98375.84;5099254;27;40522;-75
2022/08/14 07:58:32;;;;;;;6.77;6.17;;;;;;;31.13;40.06;98375.00;5116127;27;40828;-76
2022/08/14 08:01:01;;;;;;;7.10;6.50;;;;;;;31.33;39.26;98378.16;5116428;27;43581;-76
2022/08/14 08:03:33;;;;;;;6.67;6.07;;;;;;;31.27;39.14;98376.41;5116309;27;42497;-75
2022/08/14 08:06:01;;;;;;;6.90;6.37;;;;;;;31.37;38.74;98379.34;5116411;27;40412;-76
2022/08/14 08:08:30;;;;;;;7.50;6.90;;;;;;;31.84;38.62;98377.34;5134654;27;41737;-74
2022/08/14 08:10:59;;;;;;;6.60;6.00;;;;;;;32.35;37.08;98381.06;5116079;27;41718;-75
2022/08/14 08:13:29;;;;;;;6.67;6.10;;;;;;;32.64;36.95;98374.41;5098898;27;40877;-75
2022/08/14 08:15:57;;;;;;;6.23;5.83;;;;;;;32.86;35.97;98380.00;5099488;27;39873;-75
2022/08/14 08:18:27;;;;;;;7.20;6.60;;;;;;;33.59;34.75;98392.59;5134273;27;42687;-76
2022/08/14 08:20:56;;;;;;;6.40;5.90;;;;;;;34.19;33.67;98400.72;5134359;27;43733;-74
2022/08/14 08:23:25;;;;;;;6.23;5.73;;;;;;;34.38;33.62;98400.38;5115049;27;42346;-75
2022/08/14 08:25:53;;;;;;;6.10;5.60;;;;;;;34.43;33.19;98378.44;5133834;27;39711;-75
2022/08/14 08:28:22;;;;;;;6.20;5.60;;;;;;;34.41;32.71;98403.44;5097816;27;40731;-74
2022/08/14 08:30:55;;;;;;;7.13;6.53;;;;;;;34.24;33.17;98411.78;5115370;27;42545;-74
2022/08/14 08:33:26;;;;;;;6.10;5.60;;;;;;;34.12;33.32;98402.88;5114869;27;41271;-75
2022/08/14 08:35:58;;;;;;;6.87;6.27;;;;;;;34.26;33.38;98397.78;5130698;27;39939;-75
2022/08/14 08:38:27;;;;;;;6.10;5.70;;;;;;;34.66;32.61;98399.25;5111818;27;41757;-76
2022/08/14 08:40:57;;;;;;;6.37;5.90;;;;;;;35.17;31.43;98398.56;5115029;27;43746;-75
2022/08/14 08:43:26;;;;;;;5.90;5.50;;;;;;;36.12;30.50;98415.84;5114996;27;42931;-75
2022/08/14 08:45:59;;;;;;;6.50;5.97;;;;;;;37.39;28.96;98408.47;5114956;27;39987;-75
2022/08/14 08:48:28;;;;;;;5.75;5.32;;;;;;;39.12;27.09;98435.19;5112134;27;42614;-75
2022/08/14 08:50:58;;;;;;;5.85;5.35;;;;;;;40.22;25.16;98426.72;5097733;27;41929;-77
2022/08/14 08:53:31;;;;;;;5.35;4.95;;;;;;;41.25;23.96;98427.63;5114468;27;43591;-76
2022/08/14 08:55:59;;;;;;;5.88;5.43;;;;;;;41.50;23.32;98429.09;5115020;27;40403;-76
2022/08/14 08:58:28;;;;;;;5.63;5.22;;;;;;;40.65;23.91;98423.91;5114359;27;41732;-76
2022/08/14 09:01:00;;;;;;;5.35;4.95;;;;;;;39.72;24.84;98422.66;5097608;27;42050;-76
2022/08/14 09:03:31;;;;;;;5.32;4.82;;;;;;;38.98;25.65;98412.06;5111672;27;42919;-76
2022/08/14 09:06:02;;;;;;;5.30;4.78;;;;;;;39.00;25.79;98415.38;5133294;27;42198;-76
2022/08/14 09:08:31;;;;;;;5.53;5.10;;;;;;;39.11;25.64;98414.97;5130438;27;42480;-76
2022/08/14 09:11:01;;;;;;;5.35;4.95;;;;;;;39.48;24.89;98417.13;5132880;27;42657;-75
2022/08/14 09:13:30;;;;;;;5.70;5.30;;;;;;;39.82;24.31;98414.19;5132774;27;42291;-76
2022/08/14 09:16:00;;;;;;;5.13;4.82;;;;;;;40.26;23.86;98417.81;5097349;27;40264;-76
2022/08/14 09:18:28;;;;;;;5.10;4.75;;;;;;;41.50;23.02;98411.59;5113336;27;43258;-76
2022/08/14 09:20:57;;;;;;;5.00;4.70;;;;;;;42.84;21.29;98412.84;5114328;27;43304;-76
2022/08/14 09:23:25;;;;;;;4.72;4.43;;;;;;;43.98;20.52;98407.53;5132482;27;42247;-76
2022/08/14 09:25:53;;;;;;;4.97;4.68;;;;;;;44.42;20.20;98414.81;5096900;27;39139;-75
2022/08/14 09:28:21;;;;;;;4.85;4.45;;;;;;;44.66;18.97;98428.28;5096558;27;41804;-75
2022/08/14 09:30:52;;;;;;;4.43;4.13;;;;;;;45.42;18.50;98428.50;5132402;27;42478;-75
2022/08/14 09:33:52;;;;;;;4.22;3.92;;;;;;;46.43;17.61;98427.50;5113627;27;42633;-76
2022/08/14 09:36:40;;;;;;;4.03;3.83;;;;;;;46.31;17.69;98426.63;5113862;27;38836;-76
2022/08/14 09:39:20;;;;;;;4.50;4.20;;;;;;;45.46;17.24;98398.72;5131289;27;41635;-76
2022/08/14 09:42:02;;;;;;;3.95;3.75;;;;;;;45.03;17.92;98416.41;5129915;27;42716;-77
2022/08/14 09:44:44;;;;;;;3.92;3.67;;;;;;;43.86;19.00;98416.50;5114961;27;42411;-76
2022/08/14 09:47:13;;;;;;;4.10;3.80;;;;;;;42.78;20.36;98379.88;5097520;27;39114;-76
2022/08/14 09:49:43;;;;;;;4.70;4.40;;;;;;;41.94;21.03;98380.38;5097042;27;41897;-76
2022/08/14 09:52:13;;;;;;;4.90;4.60;;;;;;;41.01;21.62;98381.66;5132340;27;42821;-76
2022/08/14 09:54:44;;;;;;;5.00;4.70;;;;;;;40.44;22.18;98376.19;5114251;27;42916;-76
2022/08/14 09:57:25;;;;;;;5.05;4.53;;;;;;;40.80;21.62;98364.53;5114844;27;40548;-74
2022/08/14 09:59:53;;;;;;;5.00;4.70;;;;;;;41.39;21.36;98366.50;5096902;27;40484;-75
2022/08/14 10:02:23;;;;;;;4.75;4.45;;;;;;;41.45;21.14;98348.56;5114371;27;42643;-75
2022/08/14 10:05:05;;;;;;;5.18;4.78;;;;;;;41.09;21.60;98350.38;5113813;27;43375;-74
2022/08/14 10:07:34;;;;;;;5.32;4.93;;;;;;;40.48;22.22;98345.88;5129592;27;39890;-75
2022/08/14 10:10:03;;;;;;;4.70;4.40;;;;;;;39.90;22.88;98335.13;5132297;27;41545;-74
2022/08/14 10:12:48;;;;;;;4.85;4.45;;;;;;;39.52;22.90;98341.69;5114222;27;42896;-75
2022/08/14 10:15:21;;;;;;;4.15;3.85;;;;;;;39.28;23.01;98334.19;5096714;27;41503;-75
2022/08/14 10:17:50;;;;;;;4.30;4.03;;;;;;;38.93;23.14;98329.03;5113442;27;38885;-75
2022/08/14 10:20:21;;;;;;;4.40;4.10;;;;;;;38.21;23.84;98341.78;5113508;27;43002;-75
2022/08/14 10:22:49;;;;;;;5.13;4.73;;;;;;;37.88;24.48;98327.59;5096705;27;41820;-75
2022/08/14 10:25:18;;;;;;;4.60;4.30;;;;;;;38.00;24.83;98319.78;5132038;27;42023;-75
2022/08/14 10:27:57;;;;;;;5.00;4.60;;;;;;;38.13;24.63;98317.50;5113947;27;40269;-75
2022/08/14 10:30:36;;;;;;;4.77;4.47;;;;;;;38.00;24.52;98317.00;5113934;27;42612;-75
2022/08/14 10:33:04;;;;;;;4.70;4.40;;;;;;;37.76;25.00;98299.47;5110682;27;43737;-76
2022/08/14 10:35:42;;;;;;;4.60;4.20;;;;;;;37.98;24.82;98310.94;5132386;27;42150;-76
2022/08/14 10:38:10;;;;;;;4.63;4.33;;;;;;;38.08;24.63;98294.31;5113697;27;39241;-75
2022/08/14 10:40:38;;;;;;;4.53;4.20;;;;;;;37.66;24.52;98307.84;5113754;27;42633;-75
2022/08/14 10:43:24;;;;;;;4.73;4.43;;;;;;;36.97;25.05;98294.78;5113530;27;43768;-75
2022/08/14 10:46:00;;;;;;;4.23;4.00;;;;;;;36.90;25.42;98272.19;5110241;27;42962;-75
2022/08/14 10:48:29;;;;;;;4.37;3.97;;;;;;;37.30;25.24;98283.13;5110756;27;41845;-75
2022/08/14 10:50:59;;;;;;;4.20;3.90;;;;;;;37.84;23.92;98295.28;5113500;27;42334;-75
2022/08/14 10:53:31;;;;;;;4.07;3.77;;;;;;;38.58;23.25;98292.25;5131634;27;42808;-75
2022/08/14 10:56:02;;;;;;;4.03;3.73;;;;;;;39.58;22.26;98266.47;5131763;27;42222;-76
2022/08/14 10:58:32;;;;;;;3.95;3.65;;;;;;;40.36;21.44;98293.63;5110185;27;40761;-76
2022/08/14 11:01:04;;;;;;;3.38;3.10;;;;;;;39.60;21.98;98291.13;5113350;27;42732;-75
2022/08/14 11:03:40;;;;;;;3.80;3.50;;;;;;;38.78;22.58;98289.28;5115393;27;42836;-75
2022/08/14 11:06:18;;;;;;;4.07;3.77;;;;;;;38.54;22.54;98288.44;5116725;27;41130;-75
2022/08/14 11:08:48;;;;;;;3.43;3.23;;;;;;;38.34;23.58;98274.72;5114931;27;39799;-75
2022/08/14 11:11:17;;;;;;;3.40;3.20;;;;;;;38.64;22.69;98285.56;5116680;27;42725;-75
2022/08/14 11:13:46;;;;;;;3.60;3.30;;;;;;;39.58;22.29;98276.75;5135148;27;42580;-75
2022/08/14 11:16:15;;;;;;;4.00;3.70;;;;;;;40.98;20.74;98290.59;5116757;27;41124;-76
2022/08/14 11:18:49;;;;;;;3.58;3.30;;;;;;;42.34;19.92;98302.66;5116184;27;40202;-76
2022/08/14 11:21:21;;;;;;;3.50;3.30;;;;;;;43.48;18.79;98298.22;5099633;27;40975;-76
2022/08/14 11:23:50;;;;;;;3.40;3.20;;;;;;;44.74;17.59;98287.75;5114570;27;42726;-76
2022/08/14 11:26:28;;;;;;;3.17;2.97;;;;;;;45.59;16.75;98302.56;5099601;27;43310;-75
2022/08/14 11:28:58;;;;;;;3.28;3.08;;;;;;;45.14;16.89;98299.47;5099491;27;40002;-76
2022/08/14 11:31:30;;;;;;;2.92;2.78;;;;;;;44.66;17.45;98283.00;5099680;27;41242;-75
2022/08/14 11:33:58;;;;;;;3.65;3.42;;;;;;;44.30;17.76;98281.41;5116197;27;42219;-76
2022/08/14 11:36:29;;;;;;;3.30;3.10;;;;;;;44.11;17.72;98271.75;5116303;27;43797;-75
2022/08/14 11:38:57;;;;;;;3.30;3.10;;;;;;;44.18;18.10;98264.50;5116109;27;41404;-76
2022/08/14 11:41:25;;;;;;;4.38;3.25;;;;;;;44.54;17.72;98263.31;5134953;27;42516;-75
2022/08/14 11:43:53;;;;;;;3.15;2.85;;;;;;;44.90;17.28;98266.50;5115931;27;44629;-76
2022/08/14 11:46:22;;;;;;;3.40;3.20;;;;;;;44.57;17.22;98257.88;5116351;27;42237;-76
2022/08/14 11:48:51;;;;;;;3.15;2.95;;;;;;;44.24;17.44;98266.00;5116232;27;39592;-75
2022/08/14 11:51:22;;;;;;;3.17;2.97;;;;;;;44.72;17.41;98259.34;5134592;27;41748;-75
2022/08/14 11:53:57;;;;;;;4.05;3.28;;;;;;;45.02;16.85;98251.81;5116616;27;43866;-76
2022/08/14 11:56:25;;;;;;;3.28;3.08;;;;;;;45.78;17.01;98254.53;5113130;27;42647;-76
2022/08/14 11:58:55;;;;;;;3.50;3.30;;;;;;;46.19;16.23;98262.09;5116166;27;40027;-75
2022/08/14 12:01:27;;;;;;;3.25;3.05;;;;;;;46.21;15.97;98265.38;5098918;27;41721;-75
2022/08/14 12:03:57;;;;;;;3.08;2.80;;;;;;;45.49;16.20;98258.19;5098834;27;41793;-76